createdAt,value
2018-09-10T00:00:01.639Z,17.88
2018-09-10T00:05:02.139Z,17.96
2018-09-10T00:10:01.580Z,17.95
2018-09-10T00:15:02.008Z,17.9
2018-09-10T00:20:01.366Z,17.83
2018-09-10T00:25:01.817Z,17.77
2018-09-10T00:30:01.181Z,17.83
2018-09-10T00:35:01.598Z,17.89
2018-09-10T00:40:02.037Z,18.02
2018-09-10T00:45:01.608Z,18.02
2018-09-10T00:50:01.959Z,18.13
2018-09-10T00:55:01.323Z,18.29
2018-09-10T01:00:01.802Z,18.48
2018-09-10T01:05:01.254Z,18.48
2018-09-10T01:10:01.562Z,18.39
2018-09-10T01:15:01.920Z,18.26
2018-09-10T01:20:01.345Z,18.17
2018-09-10T01:25:01.762Z,18.12
2018-09-10T01:30:01.307Z,18.13
2018-09-10T01:35:01.764Z,18.19
2018-09-10T01:40:01.237Z,18.3
2018-09-10T01:45:01.661Z,18.32
2018-09-10T01:50:02.048Z,18.24
2018-09-10T01:55:01.517Z,18.22
2018-09-10T02:00:01.862Z,18.18
2018-09-10T02:05:01.237Z,18.1
2018-09-10T02:10:01.627Z,18.02
2018-09-10T02:15:02.055Z,17.96
2018-09-10T02:20:01.553Z,17.9
2018-09-10T02:25:01.158Z,17.83
2018-09-10T02:30:01.575Z,17.75
2018-09-10T02:35:02.009Z,17.77
2018-09-10T02:40:01.189Z,17.58
2018-09-10T02:45:01.497Z,16.92
2018-09-10T02:50:01.903Z,16.61
2018-09-10T02:55:01.253Z,16.31
2018-09-10T03:00:01.871Z,16.14
2018-09-10T03:05:01.260Z,15.91
2018-09-10T03:10:01.639Z,15.82
2018-09-10T03:15:01.972Z,15.76
2018-09-10T03:20:01.273Z,15.68
2018-09-10T03:25:01.665Z,15.7
2018-09-10T03:30:02.054Z,15.51
2018-09-10T03:35:01.455Z,15.44
2018-09-10T03:40:01.749Z,15.51
2018-09-10T03:45:02.042Z,15.52
2018-09-10T03:50:01.407Z,15.49
2018-09-10T03:55:01.777Z,15.45
2018-09-10T04:00:02.046Z,15.41
2018-09-10T04:05:01.413Z,15.4
2018-09-10T04:10:01.769Z,15.39
2018-09-10T04:15:02.038Z,15.37
2018-09-10T04:20:01.313Z,15.27
2018-09-10T04:25:01.773Z,15.24
2018-09-10T04:30:01.205Z,15.06
2018-09-10T04:35:01.655Z,14.96
2018-09-10T04:40:01.650Z,14.93
2018-09-10T04:45:01.975Z,14.94
2018-09-10T04:50:01.297Z,14.96
2018-09-10T04:55:01.631Z,14.97
2018-09-10T05:00:01.930Z,14.84
2018-09-10T05:05:01.332Z,14.85
2018-09-10T05:10:01.704Z,14.85
2018-09-10T05:15:01.212Z,14.91
2018-09-10T05:20:01.595Z,14.94
2018-09-10T05:25:02.005Z,14.91
2018-09-10T05:30:01.434Z,14.85
2018-09-10T05:35:01.803Z,14.82
2018-09-10T05:40:01.128Z,14.81
2018-09-10T05:45:01.412Z,14.81
2018-09-10T05:50:01.777Z,14.82
2018-09-10T05:55:01.150Z,14.99
2018-09-10T06:00:01.457Z,15.13
2018-09-10T06:05:01.896Z,15.27
2018-09-10T06:10:01.292Z,15.37
2018-09-10T06:15:01.654Z,15.48
2018-09-10T06:20:02.041Z,15.59
2018-09-10T06:25:01.446Z,15.78
2018-09-10T06:30:01.819Z,15.98
2018-09-10T06:35:01.179Z,16.08
2018-09-10T06:40:01.503Z,16.08
2018-09-10T06:45:01.856Z,16.01
2018-09-10T06:50:01.186Z,16.1
2018-09-10T06:55:01.583Z,16.12
2018-09-10T07:00:01.931Z,16.2
2018-09-10T07:05:01.306Z,16.31
2018-09-10T07:10:01.659Z,16.42
2018-09-10T07:15:01.995Z,16.51
2018-09-10T07:20:01.368Z,16.66
2018-09-10T07:25:01.769Z,16.92
2018-09-10T07:30:02.033Z,17.04
2018-09-10T07:35:01.305Z,17.16
2018-09-10T07:40:01.662Z,17.25
2018-09-10T07:45:01.951Z,17.43
2018-09-10T07:50:01.253Z,17.46
2018-09-10T07:55:01.633Z,17.64
2018-09-10T08:00:01.907Z,17.83
2018-09-10T08:05:01.184Z,18.05
2018-09-10T08:10:01.468Z,18.23
2018-09-10T08:15:01.800Z,18.19
2018-09-10T08:20:01.148Z,18.4
2018-09-10T08:25:01.464Z,18.66
2018-09-10T08:30:01.885Z,18.88
2018-09-10T08:35:01.257Z,18.89
2018-09-10T08:40:01.604Z,19.09
2018-09-10T08:45:01.911Z,19.41
2018-09-10T08:50:01.258Z,19.91
2018-09-10T08:55:01.771Z,19.87
2018-09-10T09:00:01.144Z,19.95
2018-09-10T09:05:01.631Z,20.32
2018-09-10T09:10:02.083Z,20.37
2018-09-10T09:15:01.383Z,20.57
2018-09-10T09:20:01.771Z,20.84
2018-09-10T09:25:01.161Z,20.98
2018-09-10T09:30:01.587Z,20.94
2018-09-10T09:35:02.028Z,21.03
2018-09-10T09:40:01.450Z,21.16
2018-09-10T09:45:01.833Z,20.92
2018-09-10T09:50:01.127Z,20.79
2018-09-10T09:55:01.443Z,21.08
2018-09-10T10:00:01.698Z,20.99
2018-09-10T10:05:02.089Z,21.14
2018-09-10T10:10:01.444Z,21.36
2018-09-10T10:15:01.901Z,21.74
2018-09-10T10:20:01.226Z,21.99
2018-09-10T10:25:01.579Z,21.85
2018-09-10T10:30:01.861Z,21.2
2018-09-10T10:35:01.178Z,21.35
2018-09-10T10:40:01.454Z,21.48
2018-09-10T10:45:01.775Z,21.4
2018-09-10T10:50:02.141Z,21.46
2018-09-10T10:55:01.539Z,21.61
2018-09-10T11:00:01.814Z,21.3
2018-09-10T11:05:01.106Z,21.36
2018-09-10T11:10:01.390Z,21.45
2018-09-10T11:15:01.691Z,21.65
2018-09-10T11:20:02.011Z,21.8
2018-09-10T11:25:01.449Z,21.69
2018-09-10T11:30:01.868Z,22.05
2018-09-10T11:35:01.190Z,21.9
2018-09-10T11:40:01.519Z,22.11
2018-09-10T11:45:01.807Z,22.01
2018-09-10T11:50:01.156Z,22.34
2018-09-10T11:55:01.466Z,22.41
2018-09-10T12:00:01.826Z,22.65
2018-09-10T12:05:01.145Z,22.86
2018-09-10T12:10:01.451Z,22.96
2018-09-10T12:15:01.740Z,23.07
2018-09-10T12:20:02.143Z,23.08
2018-09-10T12:25:01.596Z,23.18
2018-09-10T12:30:02.028Z,23.35
2018-09-10T12:35:01.341Z,23.2
2018-09-10T12:40:01.673Z,23.14
2018-09-10T12:45:01.947Z,22.95
2018-09-10T12:50:01.232Z,22.84
2018-09-10T12:55:01.645Z,22.58
2018-09-10T13:00:01.986Z,22.58
2018-09-10T13:05:01.455Z,22.61
2018-09-10T13:10:01.787Z,22.66
2018-09-10T13:15:01.077Z,22.68
2018-09-10T13:20:01.486Z,22.95
2018-09-10T13:25:01.597Z,22.95
2018-09-10T13:30:01.979Z,22.61
2018-09-10T13:35:01.343Z,22.31
2018-09-10T13:40:01.885Z,22.48
2018-09-10T13:45:01.160Z,22.29
2018-09-10T13:50:01.497Z,22.25
2018-09-10T13:55:01.887Z,22.52
2018-09-10T14:00:01.208Z,22.39
2018-09-10T14:05:01.544Z,22.18
2018-09-10T14:10:01.972Z,22.26
2018-09-10T14:15:01.346Z,22.24
2018-09-10T14:20:01.764Z,22.2
2018-09-10T14:25:01.194Z,22.32
2018-09-10T14:30:01.574Z,22.24
2018-09-10T14:35:02.035Z,22.1
2018-09-10T14:40:01.447Z,21.97
2018-09-10T14:45:01.740Z,21.9
2018-09-10T14:50:02.066Z,21.91
2018-09-10T14:55:01.540Z,21.82
2018-09-10T15:00:01.883Z,21.74
2018-09-10T15:05:01.213Z,21.6
2018-09-10T15:10:01.698Z,21.54
2018-09-10T15:15:02.036Z,21.59
2018-09-10T15:20:01.343Z,21.68
2018-09-10T15:25:01.740Z,21.77
2018-09-10T15:30:02.069Z,21.84
2018-09-10T15:35:01.404Z,21.74
2018-09-10T15:40:01.785Z,21.55
2018-09-10T15:45:02.058Z,21.55
2018-09-10T15:50:01.389Z,21.5
2018-09-10T15:55:01.808Z,21.49
2018-09-10T16:00:01.198Z,21.45
2018-09-10T16:05:01.633Z,21.37
2018-09-10T16:10:01.989Z,21.4
2018-09-10T16:15:01.275Z,21.33
2018-09-10T16:20:01.632Z,21.2
2018-09-10T16:25:02.155Z,21.2
2018-09-10T16:30:01.440Z,21.13
2018-09-10T16:35:01.842Z,21
2018-09-10T16:40:01.237Z,20.94
2018-09-10T16:45:01.585Z,20.96
2018-09-10T16:50:01.967Z,20.92
2018-09-10T16:55:01.481Z,20.87
2018-09-10T17:00:01.211Z,20.92
2018-09-10T17:05:01.644Z,20.91
2018-09-10T17:10:02.068Z,20.77
2018-09-10T17:15:01.342Z,20.76
2018-09-10T17:20:01.683Z,20.73
2018-09-10T17:25:02.184Z,20.66
2018-09-10T17:30:01.584Z,20.47
2018-09-10T17:35:01.990Z,20.34
2018-09-10T17:40:01.450Z,20.4
2018-09-10T17:45:01.865Z,20.37
2018-09-10T17:50:01.299Z,20.18
2018-09-10T17:55:01.802Z,19.99
2018-09-10T18:00:01.298Z,19.79
2018-09-10T18:05:01.782Z,19.53
2018-09-10T18:10:01.137Z,19.25
2018-09-10T18:15:01.397Z,18.93
2018-09-10T18:20:01.821Z,18.71
2018-09-10T18:25:01.356Z,18.56
2018-09-10T18:30:02.023Z,18.49
2018-09-10T18:35:01.325Z,18.25
2018-09-10T18:40:02.101Z,17.98
2018-09-10T18:45:01.507Z,17.97
2018-09-10T18:50:01.857Z,17.79
2018-09-10T18:55:01.193Z,17.67
2018-09-10T19:00:01.509Z,17.51
2018-09-10T19:05:01.903Z,17.35
2018-09-10T19:10:01.231Z,17.23
2018-09-10T19:15:01.489Z,17.1
2018-09-10T19:20:01.909Z,17.08
2018-09-10T19:25:01.274Z,17.05
2018-09-10T19:30:01.616Z,16.96
2018-09-10T19:35:02.106Z,16.88
2018-09-10T19:40:01.541Z,16.99
2018-09-10T19:45:01.838Z,16.98
2018-09-10T19:50:01.108Z,16.94
2018-09-10T19:55:01.418Z,16.78
2018-09-10T20:00:01.708Z,16.66
2018-09-10T20:05:02.135Z,16.5
2018-09-10T20:10:01.550Z,16.4
2018-09-10T20:15:01.320Z,16.41
2018-09-10T20:20:01.677Z,16.4
2018-09-10T20:25:02.118Z,16.41
2018-09-10T20:30:01.393Z,16.43
2018-09-10T20:35:01.841Z,16.47
2018-09-10T20:40:01.216Z,16.59
2018-09-10T20:45:01.457Z,16.61
2018-09-10T20:50:01.792Z,16.57
2018-09-10T20:55:01.261Z,16.48
2018-09-10T21:00:01.538Z,16.36
2018-09-10T21:05:01.977Z,16.3
2018-09-10T21:10:01.333Z,16.17
2018-09-10T21:15:01.624Z,16.06
2018-09-10T21:20:01.974Z,16
2018-09-10T21:25:01.333Z,15.91
2018-09-10T21:30:01.670Z,15.8
2018-09-10T21:35:02.081Z,15.7
2018-09-10T21:40:01.502Z,15.61
2018-09-10T21:45:01.794Z,15.55
2018-09-10T21:50:01.164Z,15.53
2018-09-10T21:55:01.442Z,15.62
2018-09-10T22:00:01.780Z,15.77
2018-09-10T22:05:01.105Z,15.86
2018-09-10T22:10:01.478Z,15.98
2018-09-10T22:15:01.838Z,16
2018-09-10T22:20:01.161Z,15.91
2018-09-10T22:25:01.501Z,15.76
2018-09-10T22:30:01.874Z,15.69
2018-09-10T22:35:01.230Z,15.62
2018-09-10T22:40:01.543Z,15.56
2018-09-10T22:45:01.874Z,15.6
2018-09-10T22:50:01.214Z,15.53
2018-09-10T22:55:01.534Z,15.42
2018-09-10T23:00:01.818Z,15.38
2018-09-10T23:05:01.133Z,15.27
2018-09-10T23:10:01.508Z,15.21
2018-09-10T23:15:01.871Z,15.16
2018-09-10T23:20:01.186Z,15.1
2018-09-10T23:25:01.538Z,15.07
2018-09-10T23:30:01.911Z,14.95
2018-09-10T23:35:01.257Z,14.85
2018-09-10T23:40:01.605Z,14.73
2018-09-10T23:45:01.894Z,14.68
2018-09-10T23:50:01.277Z,14.69
2018-09-10T23:55:01.633Z,14.74
